Terminal Aerodrome Forecast
Issued by NWS

Home | Current Version | Previous Version | Text Only | Print | Product List | Glossary On
Versions: 1 2 3 4 5 6 7 8 9 10 11 12 13 14 15
037
FTUS45 KABQ 241740
TAFSAF
TAF
KSAF 241740Z 2418/2518 28018G28KT P6SM SCT080
     FM250100 31012G20KT P6SM SKC
     FM250300 35006KT P6SM SKC
     FM251700 26012KT P6SM SKC=

USA.gov is the U.S. government's official web portal to all federal, state and local government web resources and services.